createdAt,value
2016-03-22T00:02:40.866Z,3.7
2016-03-22T00:05:52.577Z,3.8
2016-03-22T00:09:04.194Z,3.8
2016-03-22T00:12:14.441Z,3.8
2016-03-22T00:15:23.683Z,3.8
2016-03-22T00:18:37.472Z,3.8
2016-03-22T00:21:54.199Z,3.8
2016-03-22T00:24:56.066Z,3.8
2016-03-22T00:28:06.420Z,3.8
2016-03-22T00:31:15.631Z,3.9
2016-03-22T00:34:24.999Z,3.9
2016-03-22T00:37:36.787Z,3.9
2016-03-22T00:40:53.405Z,3.9
2016-03-22T00:43:53.241Z,3.9
2016-03-22T00:47:07.424Z,3.9
2016-03-22T00:50:19.135Z,3.9
2016-03-22T00:53:30.330Z,3.9
2016-03-22T00:56:47.479Z,3.8
2016-03-22T00:59:54.440Z,3.8
2016-03-22T01:02:56.291Z,3.8
2016-03-22T01:06:05.991Z,3.8
2016-03-22T01:09:17.749Z,3.8
2016-03-22T01:12:27.226Z,3.8
2016-03-22T01:15:37.077Z,3.8
2016-03-22T01:18:51.288Z,3.8
2016-03-22T01:21:53.109Z,3.8
2016-03-22T01:25:02.820Z,3.8
2016-03-22T01:28:14.409Z,3.8
2016-03-22T01:31:25.198Z,3.8
2016-03-22T01:34:33.331Z,3.8
2016-03-22T01:37:49.918Z,3.7
2016-03-22T01:40:51.676Z,3.8
2016-03-22T01:44:03.324Z,3.8
2016-03-22T01:47:14.506Z,3.8
2016-03-22T01:50:24.890Z,3.8
2016-03-22T01:53:36.570Z,3.8
2016-03-22T01:56:52.484Z,3.7
2016-03-22T01:59:54.103Z,3.7
2016-03-22T02:03:04.776Z,3.8
2016-03-22T02:06:16.469Z,3.7
2016-03-22T02:09:28.173Z,3.7
2016-03-22T02:12:39.380Z,3.7
2016-03-22T02:15:53.871Z,3.7
2016-03-22T02:18:55.659Z,3.5
2016-03-22T02:22:04.464Z,3.3
2016-03-22T02:25:15.489Z,3
2016-03-22T02:28:25.997Z,2.8
2016-03-22T02:31:35.338Z,2.8
2016-03-22T02:34:52.284Z,2.7
2016-03-22T02:37:54.214Z,2.7
2016-03-22T02:41:03.972Z,2.7
2016-03-22T02:44:15.874Z,2.8
2016-03-22T02:47:27.772Z,2.8
2016-03-22T02:50:39.531Z,2.9
2016-03-22T02:53:55.039Z,2.9
2016-03-22T02:56:57.016Z,3
2016-03-22T03:00:08.979Z,3
2016-03-22T03:03:19.284Z,3.1
2016-03-22T03:06:31.215Z,3.1
2016-03-22T03:09:39.566Z,3.2
2016-03-22T03:12:53.387Z,3.2
2016-03-22T03:15:55.395Z,3.2
2016-03-22T03:19:06.934Z,3.2
2016-03-22T03:22:18.163Z,3.2
2016-03-22T03:25:30.171Z,3.2
2016-03-22T03:28:40.632Z,3.2
2016-03-22T03:31:51.891Z,3.2
2016-03-22T03:35:03.602Z,3.2
2016-03-22T03:38:12.957Z,3.2
2016-03-22T03:41:24.620Z,3.2
2016-03-22T03:44:34.942Z,3.2
2016-03-22T03:47:48.184Z,3.2
2016-03-22T03:50:54.988Z,3.2
2016-03-22T03:53:56.731Z,3.2
2016-03-22T03:57:06.411Z,3.2
2016-03-22T04:00:16.375Z,3.2
2016-03-22T04:03:26.086Z,3.2
2016-03-22T04:06:40.048Z,3.2
2016-03-22T04:09:52.149Z,3.1
2016-03-22T04:13:04.032Z,3.1
2016-03-22T04:16:12.450Z,3
2016-03-22T04:19:24.504Z,2.9
2016-03-22T04:22:33.872Z,2.9
2016-03-22T04:25:50.770Z,2.8
2016-03-22T04:28:52.716Z,2.7
2016-03-22T04:32:04.474Z,2.7
2016-03-22T04:35:16.344Z,2.7
2016-03-22T04:38:28.274Z,2.8
2016-03-22T04:41:37.907Z,2.8
2016-03-22T04:44:54.493Z,2.9
2016-03-22T04:47:56.236Z,2.9
2016-03-22T04:51:07.744Z,2.9
2016-03-22T04:54:16.989Z,3
2016-03-22T04:57:28.841Z,3
2016-03-22T05:00:40.005Z,3
2016-03-22T05:03:56.466Z,3
2016-03-22T05:06:58.318Z,3.1
2016-03-22T05:10:07.920Z,3
2016-03-22T05:13:17.915Z,3
2016-03-22T05:16:27.612Z,2.9
2016-03-22T05:19:36.072Z,3
2016-03-22T05:22:52.923Z,3
2016-03-22T05:25:54.728Z,3.1
2016-03-22T05:29:03.925Z,3.1
2016-03-22T05:32:13.450Z,3.1
2016-03-22T05:35:23.756Z,3.2
2016-03-22T05:38:37.821Z,3.2
2016-03-22T05:41:54.728Z,3.3
2016-03-22T05:44:56.705Z,3.4
2016-03-22T05:48:07.432Z,3.4
2016-03-22T05:51:19.366Z,3.4
2016-03-22T05:54:30.888Z,3.5
2016-03-22T05:57:47.178Z,3.5
2016-03-22T06:00:54.046Z,3.6
2016-03-22T06:03:55.882Z,3.7
2016-03-22T06:07:07.624Z,3.8
2016-03-22T06:10:16.823Z,3.9
2016-03-22T06:13:26.112Z,3.9
2016-03-22T06:16:35.494Z,3.9
2016-03-22T06:19:52.471Z,3.9
2016-03-22T06:22:54.449Z,4
2016-03-22T06:26:05.769Z,4.1
2016-03-22T06:29:17.655Z,4.1
2016-03-22T06:32:29.663Z,4.1
2016-03-22T06:35:41.655Z,4.1
2016-03-22T06:38:52.054Z,4.1
2016-03-22T06:42:04.125Z,4.1
2016-03-22T06:45:16.245Z,4.1
2016-03-22T06:48:28.361Z,4
2016-03-22T06:51:40.479Z,4
2016-03-22T06:54:52.535Z,4
2016-03-22T06:58:04.542Z,4.2
2016-03-22T07:01:12.863Z,4.2
2016-03-22T07:04:22.545Z,4.3
2016-03-22T07:07:34.351Z,4.3
2016-03-22T07:10:49.317Z,4.3
2016-03-22T07:13:56.387Z,4.3
2016-03-22T07:16:58.817Z,4.3
2016-03-22T07:20:11.044Z,4.4
2016-03-22T07:23:23.570Z,4.4
2016-03-22T07:26:36.062Z,4.4
2016-03-22T07:29:53.571Z,4.5
2016-03-22T07:32:56.095Z,4.5
2016-03-22T07:36:08.603Z,4.6
2016-03-22T07:39:18.832Z,4.7
2016-03-22T07:42:27.464Z,4.9
2016-03-22T07:45:38.145Z,5.1
2016-03-22T07:48:55.013Z,5.2
2016-03-22T07:52:01.333Z,5.4
2016-03-22T07:55:07.232Z,5.6
2016-03-22T07:58:18.258Z,5.7
2016-03-22T08:01:30.673Z,5.8
2016-03-22T08:04:40.274Z,5.9
2016-03-22T08:07:52.595Z,6.1
2016-03-22T08:11:04.994Z,6.1
2016-03-22T08:14:17.395Z,6.2
2016-03-22T08:17:28.716Z,6.2
2016-03-22T08:20:41.005Z,6.1
2016-03-22T08:23:53.279Z,6
2016-03-22T08:27:05.724Z,5.9
2016-03-22T08:30:17.844Z,5.8
2016-03-22T08:33:28.790Z,5.6
2016-03-22T08:36:37.188Z,5.6
2016-03-22T08:39:56.275Z,5.9
2016-03-22T08:42:58.689Z,6.1
2016-03-22T08:46:10.259Z,6.1
2016-03-22T08:49:22.692Z,6
2016-03-22T08:52:35.091Z,6
2016-03-22T08:55:49.896Z,6
2016-03-22T08:58:52.169Z,6.1
2016-03-22T09:02:04.257Z,6.1
2016-03-22T09:05:15.298Z,6
2016-03-22T09:08:27.365Z,5.9
2016-03-22T09:11:39.577Z,5.8
2016-03-22T09:14:56.663Z,5.7
2016-03-22T09:17:59.108Z,5.9
2016-03-22T09:21:11.351Z,6.1
2016-03-22T09:24:23.502Z,6.3
2016-03-22T09:27:33.807Z,6.6
2016-03-22T09:30:49.128Z,6.8
2016-03-22T09:33:56.526Z,6.9
2016-03-22T09:36:58.879Z,7
2016-03-22T09:40:15.167Z,7.1
2016-03-22T09:43:23.366Z,7.1
2016-03-22T09:46:35.967Z,6.9
2016-03-22T09:49:49.366Z,7.1
2016-03-22T09:52:51.858Z,7.4
2016-03-22T09:56:04.071Z,7.7
2016-03-22T09:59:12.515Z,7.9
2016-03-22T10:02:20.995Z,8
2016-03-22T10:05:33.129Z,8
2016-03-22T10:08:41.887Z,7.9
2016-03-22T10:11:54.175Z,7.6
2016-03-22T10:15:03.512Z,7.2
2016-03-22T10:18:15.722Z,7
2016-03-22T10:21:27.936Z,6.8
2016-03-22T10:24:39.898Z,6.6
2016-03-22T10:27:52.156Z,6.5
2016-03-22T10:31:04.320Z,6.5
2016-03-22T10:34:16.596Z,6.5
2016-03-22T10:37:29.026Z,6.6
2016-03-22T10:40:38.425Z,6.7
2016-03-22T10:43:51.542Z,7.3
2016-03-22T10:47:06.316Z,7.5
2016-03-22T10:50:19.171Z,7.3
2016-03-22T10:53:27.272Z,7.1
2016-03-22T10:56:42.046Z,6.8
2016-03-22T10:59:54.446Z,6.8
2016-03-22T11:03:07.032Z,6.9
2016-03-22T11:06:19.771Z,7
2016-03-22T11:09:32.344Z,7.3
2016-03-22T11:12:49.690Z,7.6
2016-03-22T11:15:52.492Z,7.8
2016-03-22T11:19:04.123Z,7.9
2016-03-22T11:22:15.316Z,8.2
2016-03-22T11:25:27.998Z,8.4
2016-03-22T11:28:38.537Z,8.6
2016-03-22T11:31:54.015Z,8.7
2016-03-22T11:34:56.834Z,8.7
2016-03-22T11:38:05.968Z,8.7
2016-03-22T11:41:16.711Z,8.8
2016-03-22T11:44:26.768Z,8.8
2016-03-22T11:47:39.494Z,8.7
2016-03-22T11:50:54.941Z,8.4
2016-03-22T11:53:57.589Z,8.3
2016-03-22T11:57:06.629Z,8.2
2016-03-22T12:00:19.045Z,8.1
2016-03-22T12:03:31.366Z,7.9
2016-03-22T12:06:48.624Z,7.7
2016-03-22T12:09:56.258Z,7.8
2016-03-22T12:12:58.844Z,8
2016-03-22T12:16:11.352Z,8.5
2016-03-22T12:19:22.097Z,8.8
2016-03-22T12:22:36.636Z,9
2016-03-22T12:25:54.051Z,9.2
2016-03-22T12:28:56.823Z,9.1
2016-03-22T12:32:09.457Z,9.2
2016-03-22T12:35:19.687Z,9.3
2016-03-22T12:38:27.648Z,9.3
2016-03-22T12:41:47.281Z,9.2
2016-03-22T12:44:54.694Z,8.7
2016-03-22T12:47:57.156Z,8.4
2016-03-22T12:51:09.399Z,8.2
2016-03-22T12:54:21.581Z,7.8
2016-03-22T12:57:33.808Z,7.6
2016-03-22T13:00:51.034Z,7.3
2016-03-22T13:03:53.387Z,6.9
2016-03-22T13:07:03.692Z,6.6
2016-03-22T13:10:13.627Z,6.5
2016-03-22T13:13:22.716Z,6.6
2016-03-22T13:16:34.989Z,6.7
2016-03-22T13:19:50.904Z,6.7
2016-03-22T13:22:53.193Z,6.8
2016-03-22T13:26:05.075Z,6.9
2016-03-22T13:29:17.365Z,7
2016-03-22T13:32:29.267Z,7.1
2016-03-22T13:35:37.617Z,7.3
2016-03-22T13:38:52.314Z,7.6
2016-03-22T13:42:04.634Z,7.8
2016-03-22T13:45:17.033Z,7.9
2016-03-22T13:48:29.310Z,7.6
2016-03-22T13:51:39.317Z,7.2
2016-03-22T13:54:53.466Z,7
2016-03-22T13:58:05.709Z,6.9
2016-03-22T14:01:17.639Z,6.7
2016-03-22T14:04:27.946Z,6.7
2016-03-22T14:07:37.298Z,6.6
2016-03-22T14:10:54.275Z,6.7
2016-03-22T14:13:56.392Z,6.8
2016-03-22T14:17:08.510Z,6.8
2016-03-22T14:20:20.677Z,6.8
2016-03-22T14:23:32.419Z,6.8
2016-03-22T14:26:49.255Z,6.8
2016-03-22T14:29:56.435Z,6.8
2016-03-22T14:32:58.475Z,6.9
2016-03-22T14:36:10.592Z,6.9
2016-03-22T14:39:22.806Z,6.8
2016-03-22T14:42:34.845Z,6.7
2016-03-22T14:45:51.822Z,6.7
2016-03-22T14:48:53.971Z,6.8
2016-03-22T14:52:05.011Z,6.9
2016-03-22T14:55:17.018Z,7
2016-03-22T14:58:27.153Z,7
2016-03-22T15:01:37.615Z,7.1
2016-03-22T15:04:54.654Z,7
2016-03-22T15:07:56.834Z,6.7
2016-03-22T15:11:05.530Z,6.6
2016-03-22T15:14:13.413Z,6.7
2016-03-22T15:17:27.705Z,6.7
2016-03-22T15:20:37.682Z,6.7
2016-03-22T15:23:50.862Z,6.7
2016-03-22T15:26:50.838Z,6.7
2016-03-22T15:30:05.174Z,6.9
2016-03-22T15:33:16.324Z,7.1
2016-03-22T15:36:24.443Z,7.2
2016-03-22T15:39:36.389Z,7.2
2016-03-22T15:42:51.225Z,7.1
2016-03-22T15:45:53.264Z,7.1
2016-03-22T15:49:03.772Z,7
2016-03-22T15:52:15.453Z,6.9
2016-03-22T15:55:25.479Z,6.8
2016-03-22T15:58:37.112Z,6.7
2016-03-22T16:01:54.057Z,6.6
2016-03-22T16:04:55.925Z,6.6
2016-03-22T16:08:05.980Z,6.5
2016-03-22T16:11:15.409Z,6.5
2016-03-22T16:14:27.265Z,6.4
2016-03-22T16:17:37.757Z,6.4
2016-03-22T16:20:52.483Z,6.3
2016-03-22T16:23:54.507Z,6.3
2016-03-22T16:27:05.031Z,6.3
2016-03-22T16:30:14.617Z,6.3
2016-03-22T16:33:26.378Z,6.3
2016-03-22T16:36:36.245Z,6.3
2016-03-22T16:39:53.020Z,6.3
2016-03-22T16:42:54.871Z,6.3
2016-03-22T16:46:03.145Z,6.3
2016-03-22T16:49:12.871Z,6.2
2016-03-22T16:52:24.772Z,6.2
2016-03-22T16:55:36.578Z,6.2
2016-03-22T16:58:51.320Z,6.2
2016-03-22T17:01:53.203Z,6.2
2016-03-22T17:05:03.929Z,6.1
2016-03-22T17:08:15.751Z,6.1
2016-03-22T17:11:27.542Z,6.1
2016-03-22T17:14:36.801Z,6.1
2016-03-22T17:17:51.247Z,6
2016-03-22T17:20:53.161Z,6
2016-03-22T17:24:03.544Z,5.9
2016-03-22T17:27:13.427Z,5.9
2016-03-22T17:30:25.329Z,5.9
2016-03-22T17:33:34.211Z,5.9
2016-03-22T17:36:50.140Z,5.9
2016-03-22T17:39:56.945Z,5.8
2016-03-22T17:42:58.719Z,5.8
2016-03-22T17:46:07.962Z,5.8
2016-03-22T17:49:17.392Z,5.8
2016-03-22T17:52:26.794Z,5.8
2016-03-22T17:55:38.536Z,5.8
2016-03-22T17:58:54.622Z,5.7
2016-03-22T18:01:56.537Z,5.7
2016-03-22T18:05:05.795Z,5.7
2016-03-22T18:08:17.474Z,5.7
2016-03-22T18:11:29.407Z,5.7
2016-03-22T18:14:39.602Z,5.6
2016-03-22T18:17:53.736Z,5.6
2016-03-22T18:20:55.494Z,5.6
2016-03-22T18:24:07.267Z,5.6
2016-03-22T18:27:16.447Z,5.6
2016-03-22T18:30:28.302Z,5.6
2016-03-22T18:33:36.560Z,5.6
2016-03-22T18:36:53.256Z,5.5
2016-03-22T18:39:55.045Z,5.5
2016-03-22T18:43:04.381Z,5.5
2016-03-22T18:46:12.998Z,5.4
2016-03-22T18:49:24.212Z,5.4
2016-03-22T18:52:35.939Z,5.4
2016-03-22T18:55:51.478Z,5.3
2016-03-22T18:58:53.330Z,5.4
2016-03-22T19:02:04.979Z,5.3
2016-03-22T19:05:16.628Z,5.3
2016-03-22T19:08:27.920Z,5.3
2016-03-22T19:11:39.537Z,5.3
2016-03-22T19:14:56.295Z,5.3
2016-03-22T19:17:58.178Z,5.3
2016-03-22T19:21:06.218Z,5.3
2016-03-22T19:24:20.335Z,5.3
2016-03-22T19:27:29.908Z,5.3
2016-03-22T19:30:38.307Z,5.3
2016-03-22T19:33:55.049Z,5.3
2016-03-22T19:36:56.948Z,5.3
2016-03-22T19:40:08.519Z,5.3
2016-03-22T19:43:20.168Z,5.3
2016-03-22T19:46:31.725Z,5.2
2016-03-22T19:49:48.608Z,5.3
2016-03-22T19:52:55.507Z,5.3
2016-03-22T19:55:57.468Z,5.3
2016-03-22T19:59:09.241Z,5.3
2016-03-22T20:02:20.046Z,5.3
2016-03-22T20:05:31.791Z,5.2
2016-03-22T20:08:48.253Z,5.2
2016-03-22T20:11:55.208Z,5.2
2016-03-22T20:14:56.890Z,5.2
2016-03-22T20:18:08.723Z,5.2
2016-03-22T20:21:20.532Z,5.2
2016-03-22T20:24:30.051Z,5.1
2016-03-22T20:27:41.915Z,5.1
2016-03-22T20:30:56.499Z,5.1
2016-03-22T20:33:58.444Z,5
2016-03-22T20:37:08.202Z,5
2016-03-22T20:40:19.928Z,4.9
2016-03-22T20:43:31.752Z,4.8
2016-03-22T20:46:48.135Z,4.7
2016-03-22T20:49:55.018Z,4.6
2016-03-22T20:52:56.916Z,4.5
2016-03-22T20:56:08.737Z,4.5
2016-03-22T20:59:18.932Z,4.5
2016-03-22T21:02:28.584Z,4.5
2016-03-22T21:05:40.325Z,4.4
2016-03-22T21:08:57.116Z,4.4
2016-03-22T21:11:58.827Z,4.3
2016-03-22T21:15:10.569Z,4.3
2016-03-22T21:18:22.327Z,4.2
2016-03-22T21:21:31.838Z,4.2
2016-03-22T21:24:41.377Z,4.2
2016-03-22T21:27:57.714Z,4.1
2016-03-22T21:30:57.441Z,4.1
2016-03-22T21:34:11.214Z,4.1
2016-03-22T21:37:22.894Z,4.1
2016-03-22T21:40:34.561Z,4.1
2016-03-22T21:46:57.452Z,4.2
2016-03-22T21:49:59.351Z,4.2
2016-03-22T21:53:08.141Z,4.2
2016-03-22T21:56:19.976Z,4.2
2016-03-22T21:59:31.737Z,4.2
2016-03-22T22:02:41.370Z,4.2
2016-03-22T22:05:53.112Z,4.3
2016-03-22T22:09:05.012Z,4.3
2016-03-22T22:12:15.957Z,4.3
2016-03-22T22:15:25.231Z,4.3
2016-03-22T22:18:36.757Z,4.2
2016-03-22T22:21:53.359Z,4.2
2016-03-22T22:24:55.257Z,4.3
2016-03-22T22:28:06.937Z,4.3
2016-03-22T22:31:16.368Z,4.3
2016-03-22T22:34:26.328Z,4.3
2016-03-22T22:37:37.948Z,4.3
2016-03-22T22:40:54.129Z,4.3
2016-03-22T22:43:55.996Z,4.3
2016-03-22T22:47:07.613Z,4.3
2016-03-22T22:50:16.544Z,4.3
2016-03-22T22:53:28.335Z,4.4
2016-03-22T22:56:38.312Z,4.4
2016-03-22T22:59:52.555Z,4.3
2016-03-22T23:02:54.501Z,4.3
2016-03-22T23:06:06.180Z,4.3
2016-03-22T23:09:15.719Z,4.3
2016-03-22T23:12:27.480Z,4.3
2016-03-22T23:15:39.191Z,4.3
2016-03-22T23:18:56.090Z,4.3
2016-03-22T23:21:58.021Z,4.3
2016-03-22T23:25:06.122Z,4.3
2016-03-22T23:28:20.457Z,4.3
2016-03-22T23:31:32.548Z,4.2
2016-03-22T23:34:42.415Z,4.2
2016-03-22T23:37:54.375Z,4.2
2016-03-22T23:41:06.118Z,4.2
2016-03-22T23:44:14.220Z,4.3
2016-03-22T23:47:24.884Z,4.3
2016-03-22T23:50:36.207Z,4.3
2016-03-22T23:53:50.965Z,4.3
2016-03-22T23:56:57.849Z,4.2
2016-03-22T23:59:59.481Z,4.2
